createdAt,value
2022-12-25T14:45:24.904Z,1.50
2022-12-25T14:48:02.914Z,1.25
2022-12-25T14:50:39.528Z,1.30
2022-12-25T14:53:21.576Z,1.50
2022-12-25T14:55:55.032Z,1.75
2022-12-25T14:58:31.413Z,3.10
2022-12-25T15:01:04.774Z,1.67
2022-12-25T15:06:20.082Z,1.42
2022-12-25T15:08:57.832Z,1.60
2022-12-25T15:11:30.343Z,1.70
2022-12-25T15:14:03.206Z,2.65
2022-12-25T15:16:41.959Z,1.30
2022-12-25T15:19:25.041Z,1.33
2022-12-25T15:21:59.820Z,2.63
2022-12-25T15:27:06.268Z,1.63
2022-12-25T15:30:08.417Z,2.78
2022-12-25T15:32:30.635Z,4.50
2022-12-25T15:35:02.618Z,3.30
2022-12-25T15:37:34.711Z,2.13
2022-12-25T15:40:07.599Z,2.10
2022-12-25T15:42:40.655Z,1.73
2022-12-25T15:45:27.399Z,2.75
2022-12-25T15:47:59.563Z,3.58
2022-12-25T15:50:32.983Z,2.60
2022-12-25T15:55:38.569Z,3.25
2022-12-25T15:58:13.189Z,2.65
2022-12-25T16:00:45.795Z,3.80
2022-12-25T16:03:17.903Z,2.60
2022-12-25T16:05:50.950Z,2.80
2022-12-25T16:08:23.581Z,2.65
2022-12-25T16:10:55.699Z,2.58
2022-12-25T16:13:27.720Z,2.90
2022-12-25T16:15:59.985Z,2.88
2022-12-25T16:18:32.067Z,3.50
2022-12-25T16:21:04.192Z,2.70
2022-12-25T16:23:36.730Z,2.53
2022-12-25T16:26:09.923Z,2.30
2022-12-25T16:28:42.503Z,2.60
2022-12-25T16:31:15.022Z,2.88
2022-12-25T16:33:47.207Z,2.50
2022-12-25T16:36:25.082Z,2.72
2022-12-25T16:38:59.089Z,3.03
2022-12-25T16:41:32.122Z,3.85
2022-12-25T16:44:12.076Z,3.30
2022-12-25T16:46:44.383Z,3.40
2022-12-25T16:49:16.433Z,3.78
2022-12-25T16:51:48.500Z,4.10
2022-12-25T16:54:20.865Z,3.88
2022-12-25T16:56:52.865Z,2.90
2022-12-25T16:59:24.923Z,3.63
2022-12-25T17:01:57.626Z,3.80
2022-12-25T17:04:29.744Z,3.65
2022-12-25T17:07:01.791Z,4.88
2022-12-25T17:09:37.510Z,4.85
2022-12-25T17:12:12.822Z,5.35
2022-12-25T17:14:45.621Z,5.70
2022-12-25T17:17:17.660Z,5.05
2022-12-25T17:19:49.697Z,4.80
2022-12-25T17:22:21.931Z,4.30
2022-12-25T17:24:54.250Z,5.32
2022-12-25T17:27:26.890Z,4.57
2022-12-25T17:29:59.074Z,4.45
2022-12-25T17:32:31.020Z,4.45
2022-12-25T17:35:03.880Z,5.25
2022-12-25T17:37:35.930Z,6.05
2022-12-25T17:40:08.785Z,5.80
2022-12-25T17:42:40.740Z,6.47
2022-12-25T17:45:12.727Z,9.48
2022-12-25T17:47:44.954Z,12.40
2022-12-25T17:50:16.969Z,11.50
2022-12-25T17:52:48.995Z,10.98
2022-12-25T17:55:34.254Z,9.35
2022-12-25T17:58:07.550Z,9.93
2022-12-25T18:00:39.484Z,10.45
2022-12-25T18:03:12.331Z,9.18
2022-12-25T18:05:45.169Z,9.50
2022-12-25T18:08:17.175Z,9.30
2022-12-25T18:10:49.372Z,9.48
2022-12-25T18:13:21.391Z,11.13
2022-12-25T18:15:53.410Z,10.50
2022-12-25T18:18:25.452Z,11.27
2022-12-25T18:20:57.852Z,11.02
2022-12-25T18:23:30.174Z,11.80
2022-12-25T18:26:04.445Z,12.70
2022-12-25T18:28:36.814Z,11.55
2022-12-25T18:31:11.516Z,11.02
2022-12-25T18:33:51.755Z,12.30
2022-12-25T18:36:26.297Z,11.25
2022-12-25T18:38:58.854Z,10.68
2022-12-25T18:41:30.997Z,11.10
2022-12-25T18:44:31.124Z,11.05
2022-12-25T18:47:53.415Z,12.88
2022-12-25T18:51:15.308Z,12.13
2022-12-25T18:53:47.422Z,11.48
2022-12-25T18:56:19.648Z,46.05
2022-12-25T18:58:51.705Z,15.73
2022-12-25T19:01:28.348Z,11.75
2022-12-25T19:04:05.189Z,11.70
2022-12-25T19:06:38.167Z,11.75
2022-12-25T19:09:11.357Z,11.45
2022-12-25T19:11:46.484Z,15.05
2022-12-25T19:14:18.883Z,11.93
2022-12-25T19:16:52.189Z,11.90
2022-12-25T19:22:00.827Z,11.68
2022-12-25T19:24:32.863Z,9.68
2022-12-25T19:27:05.129Z,8.77
2022-12-25T19:29:37.135Z,11.43
2022-12-25T19:32:09.713Z,10.40
2022-12-25T19:34:41.965Z,10.57
2022-12-25T19:37:15.147Z,7.10
2022-12-25T19:39:48.845Z,7.63
2022-12-25T19:42:22.059Z,6.88
2022-12-25T19:44:55.931Z,6.30
2022-12-25T19:47:45.712Z,6.82
2022-12-25T19:50:17.736Z,6.78
2022-12-25T19:52:52.189Z,7.90
2022-12-25T19:55:24.778Z,8.95
2022-12-25T19:57:59.235Z,11.52
2022-12-25T20:00:31.633Z,10.80
2022-12-25T20:03:04.227Z,10.50
2022-12-25T20:05:37.062Z,11.03
2022-12-25T20:08:09.447Z,8.32
2022-12-25T20:10:45.349Z,9.80
2022-12-25T20:13:17.978Z,4.25
2022-12-25T20:15:50.400Z,5.45
2022-12-25T20:18:22.658Z,6.07
2022-12-25T20:21:02.464Z,4.63
2022-12-25T20:23:35.829Z,4.90
2022-12-25T20:26:08.480Z,4.68
2022-12-25T20:28:41.852Z,4.95
2022-12-25T20:31:19.872Z,5.82
2022-12-25T20:33:51.878Z,5.32
2022-12-25T20:36:23.922Z,5.35
2022-12-25T20:38:56.007Z,5.50
2022-12-25T20:41:29.727Z,4.85
2022-12-25T20:44:04.179Z,4.50
2022-12-25T20:46:36.884Z,4.15
2022-12-25T20:49:09.213Z,4.87
2022-12-25T20:51:41.379Z,3.67
2022-12-25T20:54:14.946Z,3.83
2022-12-25T20:56:48.578Z,3.67
2022-12-25T21:01:54.725Z,3.20
2022-12-25T21:04:26.751Z,4.00
2022-12-25T21:06:58.820Z,4.05
2022-12-25T21:09:30.864Z,4.50
2022-12-25T21:12:03.346Z,5.00
2022-12-25T21:14:37.179Z,3.70
2022-12-25T21:19:41.058Z,3.05
2022-12-25T21:22:13.061Z,3.08
2022-12-25T21:24:45.057Z,3.47
2022-12-25T21:27:17.050Z,3.45
2022-12-25T21:29:48.991Z,4.15
2022-12-25T21:32:42.881Z,4.40
2022-12-25T21:35:14.915Z,3.80
2022-12-25T21:37:47.025Z,3.50
2022-12-25T21:40:19.638Z,3.50
2022-12-25T21:42:52.403Z,4.30
2022-12-25T21:45:24.410Z,4.13
2022-12-25T21:47:59.776Z,3.70
2022-12-25T21:50:53.581Z,4.32
2022-12-25T21:53:25.696Z,4.57
2022-12-25T21:56:00.668Z,4.47
2022-12-25T21:58:32.948Z,4.70
2022-12-25T22:01:05.913Z,6.25
2022-12-25T22:03:38.212Z,11.10
2022-12-25T22:06:30.676Z,16.98
2022-12-25T22:09:04.981Z,19.33
2022-12-25T22:11:56.010Z,22.50
2022-12-25T22:14:51.805Z,18.13
2022-12-25T22:17:56.767Z,17.48
2022-12-25T22:20:34.544Z,18.30
2022-12-25T22:23:07.215Z,17.90
2022-12-25T22:25:39.129Z,19.25
2022-12-25T22:28:11.089Z,18.35
